Stk-1020 — UCYT — position and weather

sailwx.info

Track history (hours):
 
Tides and Currents Weather Stations Pressure Air Temp Water Temp Dewpoint Dewpoint Depression Visibility Wind Speed Wind Dir Waves Ship Positions

Stk-1020

Last reported at 2017-Oct-17 15:09 UTC. Time now 2017-Oct-18 07:55 UTC.
Position N 59°37' E 023°05'.

Length 82 m; draft 2.5 m.

Type: Cargo ship. MMSI: 273362200.

Date/timePositionNaut miles runAvg speedWind from/ knotsBaromVisibWave heightAir tempDewpointWater temp
2017-Oct-17 15:09N 59°37' E 023°05'1 5.9
2017-Oct-17 15:00N 59°37' E 023°06'3 6.1
2017-Oct-17 14:30N 59°38' E 023°12'3 6.5
2017-Oct-17 14:00N 59°39' E 023°19'4 7.1
2017-Oct-17 13:30N 59°40' E 023°25'4 7.6
2017-Oct-17 13:00N 59°41' E 023°33'4 7.8
2017-Oct-17 12:30N 59°42' E 023°40'4 7.9
2017-Oct-17 11:59N 59°43' E 023°48'4 7.9
2017-Oct-17 11:28N 59°44' E 023°56'4 7.8
2017-Oct-17 11:00N 59°45' E 024°03'8 7.9
2017-Oct-17 09:59N 59°47' E 024°18'4 7.6
2017-Oct-17 09:30N 59°48' E 024°25'4 7.3
2017-Oct-17 09:00N 59°49' E 024°32'4 7.2
2017-Oct-17 08:30N 59°49' E 024°39'3 6.8
2017-Oct-17 08:00N 59°50' E 024°46'3 6.3
2017-Oct-17 07:30N 59°51' E 024°52'41 6.5
2017-Oct-17 01:13N 59°59' E 026°12'1 6.3
2017-Oct-17 01:00N 59°59' E 026°15'3 6.2
2017-Oct-17 00:30N 60°00' E 026°21'3 6.1
2017-Oct-17 00:00N 60°01' E 026°27'3 6.1
2017-Oct-16 23:30N 60°02' E 026°32'3 5.8
2017-Oct-16 23:00N 60°01' E 026°38'3 5.8
2017-Oct-16 22:30N 60°01' E 026°44'7 5.9
2017-Oct-16 21:15N 60°00' E 026°59'1 6.0
2017-Oct-16 21:00N 59°60' E 027°02'3 6.6
2017-Oct-16 20:30N 60°01' E 027°08'4 7.2
2017-Oct-16 20:00N 60°03' E 027°14'4 7.1
2017-Oct-16 19:30N 60°05' E 027°20'4 7.0
2017-Oct-16 19:00N 60°07' E 027°26'3 6.9
2017-Oct-16 18:30N 60°09' E 027°32'3 7.0
2017-Oct-16 18:00N 60°10' E 027°38'3 6.9
2017-Oct-16 17:30N 60°12' E 027°44'3 6.1
2017-Oct-16 17:00N 60°12' E 027°50'3 6.6
2017-Oct-16 16:30N 60°11' E 027°56'3 6.7
2017-Oct-16 16:00N 60°10' E 028°03'3 6.7
2017-Oct-16 15:30N 60°09' E 028°09'3 6.6
2017-Oct-16 15:00N 60°09' E 028°16'7 6.8
2017-Oct-16 14:00N 60°05' E 028°27'3 6.9
2017-Oct-16 13:30N 60°03' E 028°33'3 7.0
2017-Oct-16 13:00N 60°03' E 028°40'4 6.9
2017-Oct-16 12:30N 60°03' E 028°48'4 7.1
2017-Oct-16 11:56N 60°03' E 028°56'4 7.1
2017-Oct-16 11:24N 60°03' E 029°03'17 7.4
2017-Oct-16 09:06N 60°00' E 029°37'1 8.5
2017-Oct-16 09:00N 60°00' E 029°38'4 8.2
2017-Oct-16 08:30N 59°59' E 029°46'4 8.1
2017-Oct-16 08:00N 59°57' E 029°53'4 8.3
2017-Oct-16 07:30N 59°55' E 030°01'4 8.1
2017-Oct-16 07:00N 59°54' E 030°08'3 4.9
2017-Oct-16 06:29N 59°52' E 030°13'0 0.0
2017-Oct-16 05:59N 59°52' E 030°13'0 0.0
2017-Oct-16 05:30N 59°52' E 030°13'0 0.0
2017-Oct-16 05:00N 59°52' E 030°13'0 0.0
2017-Oct-16 04:30N 59°52' E 030°13'0 0.0
2017-Oct-16 03:58N 59°52' E 030°13'0 0.0
2017-Oct-16 03:28N 59°52' E 030°13'0 0.0
2017-Oct-16 02:58N 59°52' E 030°13'0 0.3
2017-Oct-16 02:29N 59°52' E 030°12'1 2.0
2017-Oct-16 02:00N 59°53' E 030°12'3 5.4
2017-Oct-16 01:30N 59°55' E 030°16'1 2.3
2017-Oct-16 01:00N 59°56' E 030°17'0 0.0
2017-Oct-16 00:30N 59°56' E 030°17'0 0.0
2017-Oct-15 23:58N 59°56' E 030°17'0 0.0
2017-Oct-15 23:28N 59°56' E 030°17'0 0.0
2017-Oct-15 22:58N 59°56' E 030°17'0 0.0
2017-Oct-15 22:29N 59°56' E 030°17'0 0.0
2017-Oct-15 21:59N 59°56' E 030°17'0 0.0
2017-Oct-15 21:29N 59°56' E 030°17'0 0.0
2017-Oct-15 21:00N 59°56' E 030°17'0 0.0
2017-Oct-15 20:30N 59°56' E 030°17'0 0.0
2017-Oct-15 20:00N 59°56' E 030°17'0 0.0
2017-Oct-15 19:28N 59°56' E 030°17'0 0.0
2017-Oct-15 18:58N 59°56' E 030°17'0 0.0
2017-Oct-15 18:28N 59°56' E 030°17'0 0.0
2017-Oct-15 17:59N 59°56' E 030°17'0 0.0
2017-Oct-15 17:29N 59°56' E 030°17'0 0.0
2017-Oct-15 16:59N 59°56' E 030°17'0 0.0
2017-Oct-15 16:30N 59°56' E 030°17'0 0.0
2017-Oct-15 16:00N 59°56' E 030°17'0 0.0
2017-Oct-15 15:30N 59°56' E 030°17'0 0.0
2017-Oct-15 14:58N 59°56' E 030°17'0 0.0
2017-Oct-15 13:58N 59°56' E 030°17'0 0.0
2017-Oct-15 13:29N 59°56' E 030°17'0 0.0
2017-Oct-15 12:59N 59°56' E 030°17'0 0.0
2017-Oct-15 12:29N 59°56' E 030°17'0 0.0
2017-Oct-15 12:00N 59°56' E 030°17'0 0.0
2017-Oct-15 11:30N 59°56' E 030°17'0 0.0
2017-Oct-15 11:00N 59°56' E 030°17'0 0.0
2017-Oct-15 10:28N 59°56' E 030°17'0 0.0
2017-Oct-15 09:58N 59°56' E 030°17'0 0.0
2017-Oct-15 09:28N 59°56' E 030°17'0 0.0
2017-Oct-15 08:59N 59°56' E 030°17'0 0.0
2017-Oct-15 08:29N 59°56' E 030°17'0 0.0
2017-Oct-15 07:59N 59°56' E 030°17'0 0.0
2017-Oct-15 07:30N 59°56' E 030°17'0 0.0
2017-Oct-15 06:57N 59°56' E 030°17'0 0.0
2017-Oct-15 06:27N 59°56' E 030°17'0 0.0
2017-Oct-15 05:58N 59°56' E 030°17'0 0.0
2017-Oct-15 05:28N 59°56' E 030°17'0 0.0
2017-Oct-15 04:58N 59°56' E 030°17'0 0.0
2017-Oct-15 04:29N 59°56' E 030°17'0 0.0
2017-Oct-15 03:59N 59°56' E 030°17'0 0.0
2017-Oct-15 03:29N 59°56' E 030°17'0 0.0
2017-Oct-15 03:00N 59°56' E 030°17'0 0.0
2017-Oct-15 02:30N 59°56' E 030°17'0 0.0
2017-Oct-15 02:00N 59°56' E 030°17'0 0.0
2017-Oct-15 01:25N 59°56' E 030°17'0 0.0
2017-Oct-15 01:01N 59°56' E 030°17'4 7.3
2017-Oct-15 00:31N 59°57' E 030°24'4 8.0
2017-Oct-15 00:00N 59°53' E 030°27'2 0.2
2017-Oct-14 14:40N 59°52' E 030°29'0 0.0
2017-Oct-14 14:28N 59°52' E 030°29'0 0.0
2017-Oct-14 13:59N 59°52' E 030°29'0 0.0
2017-Oct-14 13:29N 59°52' E 030°29'0 0.0
2017-Oct-14 12:59N 59°52' E 030°29'0 0.0
2017-Oct-14 12:30N 59°52' E 030°29'0 0.0
2017-Oct-14 12:00N 59°52' E 030°29'0 0.0
2017-Oct-14 11:27N 59°52' E 030°29'0 0.0
2017-Oct-14 10:58N 59°52' E 030°29'0 0.0
2017-Oct-14 10:28N 59°52' E 030°29'0 0.0
2017-Oct-14 09:58N 59°52' E 030°29'0 0.0
2017-Oct-14 09:23N 59°52' E 030°29'0 0.0
2017-Oct-14 08:53N 59°52' E 030°29'0 0.0
2017-Oct-14 08:26N 59°52' E 030°29'0 0.0
2017-Oct-14 06:40N 59°52' E 030°29'0 0.2
2017-Oct-14 06:16N 59°52' E 030°29'0 0.0
2017-Oct-14 05:52N 59°52' E 030°29'0 0.0
2017-Oct-14 05:28N 59°52' E 030°29'0 0.0
2017-Oct-14 04:53N 59°52' E 030°29'0 0.0
2017-Oct-14 04:29N 59°52' E 030°29'0 0.0
2017-Oct-14 03:59N 59°52' E 030°29'0 0.0
2017-Oct-14 03:30N 59°52' E 030°29'0 0.0
2017-Oct-14 03:00N 59°52' E 030°29'0 0.0
2017-Oct-14 02:30N 59°52' E 030°29'0 0.0
2017-Oct-14 01:55N 59°52' E 030°29'0 0.0
2017-Oct-14 01:25N 59°52' E 030°29'0 0.0
2017-Oct-14 00:55N 59°52' E 030°29'0 0.0
2017-Oct-14 00:20N 59°52' E 030°29'0 0.0
2017-Oct-13 23:50N 59°52' E 030°29'0 0.0
2017-Oct-13 23:26N 59°52' E 030°29'0 0.0
2017-Oct-13 22:54N 59°52' E 030°29'0 0.0
2017-Oct-13 22:30N 59°52' E 030°29'0 0.0
2017-Oct-13 21:57N 59°52' E 030°29'0 0.0
2017-Oct-13 21:30N 59°52' E 030°29'0 0.2
2017-Oct-13 21:00N 59°52' E 030°29'  
Track history (hours):
 
Tides and Currents Weather Stations Pressure Air Temp Water Temp Dewpoint Dewpoint Depression Visibility Wind Speed Wind Dir Waves Ship Positions

Stk-1020

Last reported at 2017-Oct-17 15:09 UTC. Time now 2017-Oct-18 07:55 UTC.
Position N 59°37' E 023°05'.

Length 82 m; draft 2.5 m.

Type: Cargo ship. MMSI: 273362200.

Date/timePositionNaut miles runAvg speedWind from/ knotsBaromVisibWave heightAir tempDewpointWater temp
2017-Oct-17 15:09N 59°37' E 023°05'1 5.9
2017-Oct-17 15:00N 59°37' E 023°06'3 6.1
2017-Oct-17 14:30N 59°38' E 023°12'3 6.5
2017-Oct-17 14:00N 59°39' E 023°19'4 7.1
2017-Oct-17 13:30N 59°40' E 023°25'4 7.6
2017-Oct-17 13:00N 59°41' E 023°33'4 7.8
2017-Oct-17 12:30N 59°42' E 023°40'4 7.9
2017-Oct-17 11:59N 59°43' E 023°48'4 7.9
2017-Oct-17 11:28N 59°44' E 023°56'4 7.8
2017-Oct-17 11:00N 59°45' E 024°03'8 7.9
2017-Oct-17 09:59N 59°47' E 024°18'4 7.6
2017-Oct-17 09:30N 59°48' E 024°25'4 7.3
2017-Oct-17 09:00N 59°49' E 024°32'4 7.2
2017-Oct-17 08:30N 59°49' E 024°39'3 6.8
2017-Oct-17 08:00N 59°50' E 024°46'3 6.3
2017-Oct-17 07:30N 59°51' E 024°52'41 6.5
2017-Oct-17 01:13N 59°59' E 026°12'1 6.3
2017-Oct-17 01:00N 59°59' E 026°15'3 6.2
2017-Oct-17 00:30N 60°00' E 026°21'3 6.1
2017-Oct-17 00:00N 60°01' E 026°27'3 6.1
2017-Oct-16 23:30N 60°02' E 026°32'3 5.8
2017-Oct-16 23:00N 60°01' E 026°38'3 5.8
2017-Oct-16 22:30N 60°01' E 026°44'7 5.9
2017-Oct-16 21:15N 60°00' E 026°59'1 6.0
2017-Oct-16 21:00N 59°60' E 027°02'3 6.6
2017-Oct-16 20:30N 60°01' E 027°08'4 7.2
2017-Oct-16 20:00N 60°03' E 027°14'4 7.1
2017-Oct-16 19:30N 60°05' E 027°20'4 7.0
2017-Oct-16 19:00N 60°07' E 027°26'3 6.9
2017-Oct-16 18:30N 60°09' E 027°32'3 7.0
2017-Oct-16 18:00N 60°10' E 027°38'3 6.9
2017-Oct-16 17:30N 60°12' E 027°44'3 6.1
2017-Oct-16 17:00N 60°12' E 027°50'3 6.6
2017-Oct-16 16:30N 60°11' E 027°56'3 6.7
2017-Oct-16 16:00N 60°10' E 028°03'3 6.7
2017-Oct-16 15:30N 60°09' E 028°09'3 6.6
2017-Oct-16 15:00N 60°09' E 028°16'7 6.8
2017-Oct-16 14:00N 60°05' E 028°27'3 6.9
2017-Oct-16 13:30N 60°03' E 028°33'3 7.0
2017-Oct-16 13:00N 60°03' E 028°40'4 6.9
2017-Oct-16 12:30N 60°03' E 028°48'4 7.1
2017-Oct-16 11:56N 60°03' E 028°56'4 7.1
2017-Oct-16 11:24N 60°03' E 029°03'17 7.4
2017-Oct-16 09:06N 60°00' E 029°37'1 8.5
2017-Oct-16 09:00N 60°00' E 029°38'4 8.2
2017-Oct-16 08:30N 59°59' E 029°46'4 8.1
2017-Oct-16 08:00N 59°57' E 029°53'4 8.3
2017-Oct-16 07:30N 59°55' E 030°01'4 8.1
2017-Oct-16 07:00N 59°54' E 030°08'3 4.9
2017-Oct-16 06:29N 59°52' E 030°13'0 0.0
2017-Oct-16 05:59N 59°52' E 030°13'0 0.0
2017-Oct-16 05:30N 59°52' E 030°13'0 0.0
2017-Oct-16 05:00N 59°52' E 030°13'0 0.0
2017-Oct-16 04:30N 59°52' E 030°13'0 0.0
2017-Oct-16 03:58N 59°52' E 030°13'0 0.0
2017-Oct-16 03:28N 59°52' E 030°13'0 0.0
2017-Oct-16 02:58N 59°52' E 030°13'0 0.3
2017-Oct-16 02:29N 59°52' E 030°12'1 2.0
2017-Oct-16 02:00N 59°53' E 030°12'3 5.4
2017-Oct-16 01:30N 59°55' E 030°16'1 2.3
2017-Oct-16 01:00N 59°56' E 030°17'0 0.0
2017-Oct-16 00:30N 59°56' E 030°17'0 0.0
2017-Oct-15 23:58N 59°56' E 030°17'0 0.0
2017-Oct-15 23:28N 59°56' E 030°17'0 0.0
2017-Oct-15 22:58N 59°56' E 030°17'0 0.0
2017-Oct-15 22:29N 59°56' E 030°17'0 0.0
2017-Oct-15 21:59N 59°56' E 030°17'0 0.0
2017-Oct-15 21:29N 59°56' E 030°17'0 0.0
2017-Oct-15 21:00N 59°56' E 030°17'0 0.0
2017-Oct-15 20:30N 59°56' E 030°17'0 0.0
2017-Oct-15 20:00N 59°56' E 030°17'0 0.0
2017-Oct-15 19:28N 59°56' E 030°17'0 0.0
2017-Oct-15 18:58N 59°56' E 030°17'0 0.0
2017-Oct-15 18:28N 59°56' E 030°17'0 0.0
2017-Oct-15 17:59N 59°56' E 030°17'0 0.0
2017-Oct-15 17:29N 59°56' E 030°17'0 0.0
2017-Oct-15 16:59N 59°56' E 030°17'0 0.0
2017-Oct-15 16:30N 59°56' E 030°17'0 0.0
2017-Oct-15 16:00N 59°56' E 030°17'0 0.0
2017-Oct-15 15:30N 59°56' E 030°17'0 0.0
2017-Oct-15 14:58N 59°56' E 030°17'0 0.0
2017-Oct-15 13:58N 59°56' E 030°17'0 0.0
2017-Oct-15 13:29N 59°56' E 030°17'0 0.0
2017-Oct-15 12:59N 59°56' E 030°17'0 0.0
2017-Oct-15 12:29N 59°56' E 030°17'0 0.0
2017-Oct-15 12:00N 59°56' E 030°17'0 0.0
2017-Oct-15 11:30N 59°56' E 030°17'0 0.0
2017-Oct-15 11:00N 59°56' E 030°17'0 0.0
2017-Oct-15 10:28N 59°56' E 030°17'0 0.0
2017-Oct-15 09:58N 59°56' E 030°17'0 0.0
2017-Oct-15 09:28N 59°56' E 030°17'0 0.0
2017-Oct-15 08:59N 59°56' E 030°17'0 0.0
2017-Oct-15 08:29N 59°56' E 030°17'0 0.0
2017-Oct-15 07:59N 59°56' E 030°17'0 0.0
2017-Oct-15 07:30N 59°56' E 030°17'0 0.0
2017-Oct-15 06:57N 59°56' E 030°17'0 0.0
2017-Oct-15 06:27N 59°56' E 030°17'0 0.0
2017-Oct-15 05:58N 59°56' E 030°17'0 0.0
2017-Oct-15 05:28N 59°56' E 030°17'0 0.0
2017-Oct-15 04:58N 59°56' E 030°17'0 0.0
2017-Oct-15 04:29N 59°56' E 030°17'0 0.0
2017-Oct-15 03:59N 59°56' E 030°17'0 0.0
2017-Oct-15 03:29N 59°56' E 030°17'0 0.0
2017-Oct-15 03:00N 59°56' E 030°17'0 0.0
2017-Oct-15 02:30N 59°56' E 030°17'0 0.0
2017-Oct-15 02:00N 59°56' E 030°17'0 0.0
2017-Oct-15 01:25N 59°56' E 030°17'0 0.0
2017-Oct-15 01:01N 59°56' E 030°17'4 7.3
2017-Oct-15 00:31N 59°57' E 030°24'4 8.0
2017-Oct-15 00:00N 59°53' E 030°27'2 0.2
2017-Oct-14 14:40N 59°52' E 030°29'0 0.0
2017-Oct-14 14:28N 59°52' E 030°29'0 0.0
2017-Oct-14 13:59N 59°52' E 030°29'0 0.0
2017-Oct-14 13:29N 59°52' E 030°29'0 0.0
2017-Oct-14 12:59N 59°52' E 030°29'0 0.0
2017-Oct-14 12:30N 59°52' E 030°29'0 0.0
2017-Oct-14 12:00N 59°52' E 030°29'0 0.0
2017-Oct-14 11:27N 59°52' E 030°29'0 0.0
2017-Oct-14 10:58N 59°52' E 030°29'0 0.0
2017-Oct-14 10:28N 59°52' E 030°29'0 0.0
2017-Oct-14 09:58N 59°52' E 030°29'0 0.0
2017-Oct-14 09:23N 59°52' E 030°29'0 0.0
2017-Oct-14 08:53N 59°52' E 030°29'0 0.0
2017-Oct-14 08:26N 59°52' E 030°29'0 0.0
2017-Oct-14 06:40N 59°52' E 030°29'0 0.2
2017-Oct-14 06:16N 59°52' E 030°29'0 0.0
2017-Oct-14 05:52N 59°52' E 030°29'0 0.0
2017-Oct-14 05:28N 59°52' E 030°29'0 0.0
2017-Oct-14 04:53N 59°52' E 030°29'0 0.0
2017-Oct-14 04:29N 59°52' E 030°29'0 0.0
2017-Oct-14 03:59N 59°52' E 030°29'0 0.0
2017-Oct-14 03:30N 59°52' E 030°29'0 0.0
2017-Oct-14 03:00N 59°52' E 030°29'0 0.0
2017-Oct-14 02:30N 59°52' E 030°29'0 0.0
2017-Oct-14 01:55N 59°52' E 030°29'0 0.0
2017-Oct-14 01:25N 59°52' E 030°29'0 0.0
2017-Oct-14 00:55N 59°52' E 030°29'0 0.0
2017-Oct-14 00:20N 59°52' E 030°29'0 0.0
2017-Oct-13 23:50N 59°52' E 030°29'0 0.0
2017-Oct-13 23:26N 59°52' E 030°29'0 0.0
2017-Oct-13 22:54N 59°52' E 030°29'0 0.0
2017-Oct-13 22:30N 59°52' E 030°29'0 0.0
2017-Oct-13 21:57N 59°52' E 030°29'0 0.0
2017-Oct-13 21:30N 59°52' E 030°29'0 0.2
2017-Oct-13 21:00N 59°52' E 030°29'  

Dump ship's entire track history